Time;durP1;ratioP1;P1;durP2;ratioP2;P2;SDS_P1;SDS_P2;PMS_P1;PMS_P2;Temp;Humidity;BMP_temperature;BMP_pressure;BME280_temperature;BME280_humidity;BME280_pressure;Samples;Min_cycle;Max_cycle;Signal;HPM_P1;HPM_P2
2022/05/05 00:01:18;;;;;;;;;;;;;;;;;;5136239;27;28281;-89
2022/05/05 00:03:43;;;;;;;;;;;;;;;;;;5136151;27;28509;-89
2022/05/05 00:06:08;;;;;;;;;;;;;;;;;;5135130;27;28273;-89
2022/05/05 00:08:33;;;;;;;;;;;;;;;;;;5135889;27;29100;-89
2022/05/05 00:16:27;;;;;;;;;;;;;;;;;;5136306;27;28432;-88
2022/05/05 00:18:52;;;;;;;;;;;;;;;;;;5135909;27;29101;-88
2022/05/05 00:21:17;;;;;;;;;;;;;;;;;;5134585;27;29485;-89
2022/05/05 00:23:42;;;;;;;;;;;;;;;;;;5134626;27;27832;-89
2022/05/05 00:26:07;;;;;;;;;;;;;;;;;;5135971;27;28244;-88
2022/05/05 00:28:32;;;;;;;;;;;;;;;;;;5134554;27;29867;-89
2022/05/05 00:30:57;;;;;;;;;;;;;;;;;;5134280;27;28260;-88
2022/05/05 00:33:22;;;;;;;;;;;;;;;;;;5135807;27;28258;-88
2022/05/05 00:35:47;;;;;;;;;;;;;;;;;;5137564;27;28294;-88
2022/05/05 00:38:13;;;;;;;;;;;;;;;;;;5137994;27;28770;-88
2022/05/05 00:40:38;;;;;;;;;;;;;;;;;;5137630;27;28623;-88
2022/05/05 00:43:03;;;;;;;;;;;;;;;;;;5139233;27;28449;-88
2022/05/05 00:45:28;;;;;;;;;;;;;;;;;;5137860;27;28448;-88
2022/05/05 00:47:53;;;;;;;;;;;;;;;;;;5137755;27;30153;-88
2022/05/05 00:50:18;;;;;;;;;;;;;;;;;;5139098;27;28382;-88
2022/05/05 00:52:43;;;;;;;;;;;;;;;;;;5137678;27;28354;-88
2022/05/05 00:55:08;;;;;;;;;;;;;;;;;;5139076;27;28379;-88
2022/05/05 00:57:35;;;;;;;;;;;;;;;;;;5138888;27;29587;-88
2022/05/05 01:00:00;;;;;;;;;;;;;;;;;;5138814;27;28297;-88
2022/05/05 01:02:25;;;;;;;;;;;;;;;;;;5138114;27;28292;-88
2022/05/05 01:04:50;;;;;;;;;;;;;;;;;;5138710;27;28224;-88
2022/05/05 01:07:15;;;;;;;;;;;;;;;;;;5138582;27;28657;-88
2022/05/05 01:09:41;;;;;;;;;;;;;;;;;;5138871;27;28329;-88
2022/05/05 01:12:06;;;;;;;;;;;;;;;;;;5138707;27;28382;-88
2022/05/05 01:14:31;;;;;;;;;;;;;;;;;;5138904;27;28437;-89
2022/05/05 01:16:56;;;;;;;;;;;;;;;;;;5138607;27;28349;-88
2022/05/05 01:19:21;;;;;;;;;;;;;;;;;;5137097;27;28326;-88
2022/05/05 01:21:46;;;;;;;;;;;;;;;;;;5137224;27;28259;-89
2022/05/05 01:24:11;;;;;;;;;;;;;;;;;;5138572;27;28255;-89
2022/05/05 01:29:20;;;;;;;;;;;;;;;;;;5138416;27;28343;-87
2022/05/05 01:31:45;;;;;;;;;;;;;;;;;;5137011;27;28471;-88
2022/05/05 01:34:10;;;;;;;;;;;;;;;;;;5138617;27;28451;-88
2022/05/05 01:36:35;;;;;;;;;;;;;;;;;;5138554;27;29703;-88
2022/05/05 01:39:01;;;;;;;;;;;;;;;;;;5138312;27;28425;-88
2022/05/05 01:41:26;;;;;;;;;;;;;;;;;;5138344;27;28380;-87
2022/05/05 01:43:51;;;;;;;;;;;;;;;;;;5137042;27;28486;-88
2022/05/05 01:46:16;;;;;;;;;;;;;;;;;;5137751;27;28260;-87
2022/05/05 01:48:41;;;;;;;;;;;;;;;;;;5137958;27;28273;-88
2022/05/05 01:51:06;;;;;;;;;;;;;;;;;;5136774;27;28412;-87
2022/05/05 01:53:37;;;;;;;;;;;;;;;;;;5138483;27;28304;-87
2022/05/05 01:56:02;;;;;;;;;;;;;;;;;;5137915;27;28516;-88
2022/05/05 01:58:27;;;;;;;;;;;;;;;;;;5137981;27;28249;-88
2022/05/05 02:00:53;;;;;;;;;;;;;;;;;;5138018;27;28395;-88
2022/05/05 02:03:18;;;;;;;;;;;;;;;;;;5138013;27;28356;-88
2022/05/05 02:05:43;;;;;;;;;;;;;;;;;;5137921;27;28477;-88
2022/05/05 02:08:08;;;;;;;;;;;;;;;;;;5137906;27;28449;-87
2022/05/05 02:10:33;;;;;;;;;;;;;;;;;;5137858;27;28330;-88
2022/05/05 02:12:58;;;;;;;;;;;;;;;;;;5137902;27;27777;-88
2022/05/05 02:15:24;;;;;;;;;;;;;;;;;;5137588;27;28788;-88
2022/05/05 02:17:49;;;;;;;;;;;;;;;;;;5137898;27;28317;-88
2022/05/05 02:20:14;;;;;;;;;;;;;;;;;;5137381;27;28406;-88
2022/05/05 02:22:39;;;;;;;;;;;;;;;;;;5137889;27;28374;-88
2022/05/05 02:25:04;;;;;;;;;;;;;;;;;;5137405;27;28448;-88
2022/05/05 02:27:29;;;;;;;;;;;;;;;;;;5136224;27;28635;-89
2022/05/05 02:29:54;;;;;;;;;;;;;;;;;;5137602;27;28399;-89
2022/05/05 02:32:20;;;;;;;;;;;;;;;;;;5137689;27;28400;-88
2022/05/05 02:34:45;;;;;;;;;;;;;;;;;;5137432;27;28421;-88
2022/05/05 02:39:54;;;;;;;;;;;;;;;;;;5137223;27;28348;-88
2022/05/05 02:42:20;;;;;;;;;;;;;;;;;;5137519;27;28387;-89
2022/05/05 02:44:45;;;;;;;;;;;;;;;;;;5137294;27;28365;-88
2022/05/05 02:47:10;;;;;;;;;;;;;;;;;;5137257;27;28255;-88
2022/05/05 02:49:35;;;;;;;;;;;;;;;;;;5137204;27;28295;-88
2022/05/05 02:52:00;;;;;;;;;;;;;;;;;;5137174;27;28356;-88
2022/05/05 02:57:09;;;;;;;;;;;;;;;;;;5136640;27;28400;-88
2022/05/05 02:59:34;;;;;;;;;;;;;;;;;;5136404;27;28408;-88
2022/05/05 03:01:59;;;;;;;;;;;;;;;;;;5135793;27;28345;-88
2022/05/05 03:04:24;;;;;;;;;;;;;;;;;;5136751;27;28686;-88
2022/05/05 03:06:49;;;;;;;;;;;;;;;;;;5136901;27;28387;-88
2022/05/05 03:09:14;;;;;;;;;;;;;;;;;;5137118;27;28364;-88
2022/05/05 03:11:40;;;;;;;;;;;;;;;;;;5135742;27;28584;-88
2022/05/05 03:14:05;;;;;;;;;;;;;;;;;;5136880;27;29310;-88
2022/05/05 03:16:30;;;;;;;;;;;;;;;;;;5136779;27;27843;-88
2022/05/05 03:18:55;;;;;;;;;;;;;;;;;;5136745;27;28423;-88
2022/05/05 03:21:20;;;;;;;;;;;;;;;;;;5136838;27;28234;-88
2022/05/05 03:23:45;;;;;;;;;;;;;;;;;;5129184;27;28473;-88
2022/05/05 03:26:10;;;;;;;;;;;;;;;;;;5125285;27;28284;-88
2022/05/05 03:28:35;;;;;;;;;;;;;;;;;;5115681;27;28368;-88
2022/05/05 03:31:00;;;;;;;;;;;;;;;;;;5116213;27;28429;-87
2022/05/05 03:33:25;;;;;;;;;;;;;;;;;;5116138;27;29386;-87
2022/05/05 03:35:51;;;;;;;;;;;;;;;;;;5115612;27;28279;-87
2022/05/05 03:38:16;;;;;;;;;;;;;;;;;;5116042;27;28306;-88
2022/05/05 03:40:41;;;;;;;;;;;;;;;;;;5115810;27;28441;-88
2022/05/05 03:43:06;;;;;;;;;;;;;;;;;;5115849;27;28476;-88
2022/05/05 03:45:31;;;;;;;;;;;;;;;;;;5115490;27;28235;-89
2022/05/05 03:47:56;;;;;;;;;;;;;;;;;;5115783;27;28356;-88
2022/05/05 03:50:21;;;;;;;;;;;;;;;;;;5115766;27;28299;-88
2022/05/05 03:52:46;;;;;;;;;;;;;;;;;;5115719;27;28249;-88
2022/05/05 03:55:11;;;;;;;;;;;;;;;;;;5115997;27;28499;-88
2022/05/05 03:57:37;;;;;;;;;;;;;;;;;;5115419;27;28450;-88
2022/05/05 04:00:03;;;;;;;;;;;;;;;;;;5114257;27;27875;-88
2022/05/05 04:02:29;;;;;;;;;;;;;;;;;;5114105;27;31055;-87
2022/05/05 04:04:54;;;;;;;;;;;;;;;;;;5115308;27;28479;-88
2022/05/05 04:07:19;;;;;;;;;;;;;;;;;;5114713;27;28432;-88
2022/05/05 04:09:44;;;;;;;;;;;;;;;;;;5117102;27;28448;-88
2022/05/05 04:12:09;;;;;;;;;;;;;;;;;;5118854;27;28832;-91
2022/05/05 04:14:34;;;;;;;;;;;;;;;;;;5118881;27;28424;-86
2022/05/05 04:17:00;;;;;;;;;;;;;;;;;;5119017;27;28357;-86
2022/05/05 04:19:25;;;;;;;;;;;;;;;;;;5119147;27;28384;-86
2022/05/05 04:21:50;;;;;;;;;;;;;;;;;;5118421;27;28733;-87
2022/05/05 04:24:15;;;;;;;;;;;;;;;;;;5118804;27;28601;-86
2022/05/05 04:26:41;;;;;;;;;;;;;;;;;;5119098;27;28393;-87
2022/05/05 04:29:06;;;;;;;;;;;;;;;;;;5118906;27;28465;-88
2022/05/05 04:31:32;;;;;;;;;;;;;;;;;;5118831;27;28584;-89
2022/05/05 04:33:57;;;;;;;;;;;;;;;;;;5118413;27;28473;-83
2022/05/05 04:36:22;;;;;;;;;;;;;;;;;;5118563;27;28392;-87
2022/05/05 04:38:47;;;;;;;;;;;;;;;;;;5118641;27;28293;-85
2022/05/05 04:41:12;;;;;;;;;;;;;;;;;;5118285;27;28432;-86
2022/05/05 04:43:37;;;;;;;;;;;;;;;;;;5118474;27;28378;-85
2022/05/05 04:46:02;;;;;;;;;;;;;;;;;;5118428;27;28509;-85
2022/05/05 04:48:28;;;;;;;;;;;;;;;;;;5118612;27;28355;-86
2022/05/05 04:50:53;;;;;;;;;;;;;;;;;;5118064;27;29773;-85
2022/05/05 04:53:18;;;;;;;;;;;;;;;;;;5118463;27;28264;-82
2022/05/05 04:55:43;;;;;;;;;;;;;;;;;;5118530;27;28441;-86
2022/05/05 04:58:08;;;;;;;;;;;;;;;;;;5118397;27;28243;-93
2022/05/05 05:00:35;;;;;;;;;;;;;;;;;;5118135;27;28316;-88
2022/05/05 05:03:00;;;;;;;;;;;;;;;;;;5118181;27;28343;-86
2022/05/05 05:05:26;;;;;;;;;;;;;;;;;;5118258;27;27829;-85
2022/05/05 05:07:51;;;;;;;;;;;;;;;;;;5118428;27;28331;-83
2022/05/05 05:10:16;;;;;;;;;;;;;;;;;;5117932;27;28413;-86
2022/05/05 05:12:41;;;;;;;;;;;;;;;;;;5118170;27;28305;-84
2022/05/05 05:15:06;;;;;;;;;;;;;;;;;;5118012;27;28326;-85
2022/05/05 05:17:31;;;;;;;;;;;;;;;;;;5118246;27;28413;-82
2022/05/05 05:19:56;;;;;;;;;;;;;;;;;;5118003;27;29182;-83
2022/05/05 05:22:22;;;;;;;;;;;;;;;;;;5117061;27;28415;-82
2022/05/05 05:24:47;;;;;;;;;;;;;;;;;;5118158;27;28493;-82
2022/05/05 05:27:12;;;;;;;;;;;;;;;;;;5118012;27;28410;-83
2022/05/05 05:29:37;;;;;;;;;;;;;;;;;;5117769;27;28445;-83
2022/05/05 05:32:02;;;;;;;;;;;;;;;;;;5117863;27;28494;-83
2022/05/05 05:34:27;;;;;;;;;;;;;;;;;;5117895;27;28440;-83
2022/05/05 05:36:52;;;;;;;;;;;;;;;;;;5117873;27;28511;-84
2022/05/05 05:39:18;;;;;;;;;;;;;;;;;;5117506;27;28880;-84
2022/05/05 05:41:43;;;;;;;;;;;;;;;;;;5117447;27;28414;-84
2022/05/05 05:44:08;;;;;;;;;;;;;;;;;;5117543;27;28368;-83
2022/05/05 05:46:33;;;;;;;;;;;;;;;;;;5117841;27;28420;-82
2022/05/05 05:48:58;;;;;;;;;;;;;;;;;;5117671;27;28671;-83
2022/05/05 05:51:24;;;;;;;;;;;;;;;;;;5117318;27;28401;-83
2022/05/05 05:53:50;;;;;;;;;;;;;;;;;;5116239;27;28410;-83
2022/05/05 05:56:15;;;;;;;;;;;;;;;;;;5117452;27;28333;-83
2022/05/05 05:58:40;;;;;;;;;;;;;;;;;;5116990;27;28496;-83
2022/05/05 06:01:06;;;;;;;;;;;;;;;;;;5117254;27;28398;-83
2022/05/05 06:06:15;;;;;;;;;;;;;;;;;;5117024;27;28268;-83
2022/05/05 06:08:40;;;;;;;;;;;;;;;;;;5117150;27;28384;-82
2022/05/05 06:11:05;;;;;;;;;;;;;;;;;;5118714;27;28398;-82
2022/05/05 06:13:30;;;;;;;;;;;;;;;;;;5116970;27;28553;-83
2022/05/05 06:15:55;;;;;;;;;;;;;;;;;;5117414;27;28392;-83
2022/05/05 06:18:21;;;;;;;;;;;;;;;;;;5116819;27;28448;-83
2022/05/05 06:20:46;;;;;;;;;;;;;;;;;;5120538;27;28330;-83
2022/05/05 06:23:12;;;;;;;;;;;;;;;;;;5119010;27;28563;-83
2022/05/05 06:25:37;;;;;;;;;;;;;;;;;;5117214;27;28298;-83
2022/05/05 06:28:04;;;;;;;;;;;;;;;;;;5117877;27;28562;-83
2022/05/05 06:30:29;;;;;;;;;;;;;;;;;;5118071;27;27892;-83
2022/05/05 06:32:54;;;;;;;;;;;;;;;;;;5117094;27;28305;-82
2022/05/05 06:35:19;;;;;;;;;;;;;;;;;;5116971;27;28351;-82
2022/05/05 06:37:50;;;;;;;;;;;;;;;;;;5115262;27;28812;-82
2022/05/05 06:40:15;;;;;;;;;;;;;;;;;;5116945;27;28346;-83
2022/05/05 06:42:41;;;;;;;;;;;;;;;;;;5116603;27;28323;-83
2022/05/05 06:45:06;;;;;;;;;;;;;;;;;;5116970;27;28358;-83
2022/05/05 06:47:31;;;;;;;;;;;;;;;;;;5116505;27;28492;-82
2022/05/05 06:49:56;;;;;;;;;;;;;;;;;;5116461;27;28380;-82
2022/05/05 06:52:21;;;;;;;;;;;;;;;;;;5116772;27;28508;-82
2022/05/05 06:54:47;;;;;;;;;;;;;;;;;;5116714;27;28378;-82
2022/05/05 06:57:12;;;;;;;;;;;;;;;;;;5116105;27;28498;-84
2022/05/05 06:59:37;;;;;;;;;;;;;;;;;;5116402;27;28236;-84
2022/05/05 07:02:04;;;;;;;;;;;;;;;;;;5116215;27;28323;-86
2022/05/05 07:07:13;;;;;;;;;;;;;;;;;;5115917;27;28347;-83
2022/05/05 07:12:22;;;;;;;;;;;;;;;;;;5116395;27;28513;-84
2022/05/05 07:14:47;;;;;;;;;;;;;;;;;;5116456;27;28372;-84
2022/05/05 07:17:12;;;;;;;;;;;;;;;;;;5116158;27;28433;-85
2022/05/05 07:19:37;;;;;;;;;;;;;;;;;;5116070;27;28313;-84
2022/05/05 07:22:02;;;;;;;;;;;;;;;;;;5116000;27;28412;-82
2022/05/05 07:24:27;;;;;;;;;;;;;;;;;;5116471;27;28431;-83
2022/05/05 07:26:52;;;;;;;;;;;;;;;;;;5116079;27;28357;-85
2022/05/05 07:29:17;;;;;;;;;;;;;;;;;;5116071;27;28319;-85
2022/05/05 07:31:43;;;;;;;;;;;;;;;;;;5115910;27;28347;-80
2022/05/05 07:34:08;;;;;;;;;;;;;;;;;;5116121;27;28380;-83
2022/05/05 07:36:33;;;;;;;;;;;;;;;;;;5114515;27;28341;-82
2022/05/05 07:38:58;;;;;;;;;;;;;;;;;;5115808;27;28515;-84
2022/05/05 07:41:23;;;;;;;;;;;;;;;;;;5115797;27;28349;-85
2022/05/05 07:43:50;;;;;;;;;;;;;;;;;;5116262;27;28515;-84
2022/05/05 07:46:17;;;;;;;;;;;;;;;;;;5119446;27;29571;-85
2022/05/05 07:48:43;;;;;;;;;;;;;;;;;;5119455;27;28373;-85
2022/05/05 07:51:08;;;;;;;;;;;;;;;;;;5119465;27;28434;-86
2022/05/05 07:53:33;;;;;;;;;;;;;;;;;;5119354;27;28469;-86
2022/05/05 07:55:59;;;;;;;;;;;;;;;;;;5117181;27;30072;-86
2022/05/05 07:58:24;;;;;;;;;;;;;;;;;;5118580;27;28527;-86
2022/05/05 08:00:49;;;;;;;;;;;;;;;;;;5119180;27;28459;-86
2022/05/05 08:03:14;;;;;;;;;;;;;;;;;;5119148;27;28468;-85
2022/05/05 08:05:39;;;;;;;;;;;;;;;;;;5118967;27;29273;-85
2022/05/05 08:08:05;;;;;;;;;;;;;;;;;;5118973;27;28419;-86
2022/05/05 08:10:31;;;;;;;;;;;;;;;;;;5119019;27;28440;-85
2022/05/05 08:12:56;;;;;;;;;;;;;;;;;;5119428;27;28346;-85
2022/05/05 08:15:22;;;;;;;;;;;;;;;;;;5118989;27;28569;-85
2022/05/05 08:17:48;;;;;;;;;;;;;;;;;;5118622;27;28412;-85
2022/05/05 08:20:13;;;;;;;;;;;;;;;;;;5118889;27;27860;-85
2022/05/05 08:22:38;;;;;;;;;;;;;;;;;;5118691;27;28300;-85
2022/05/05 08:30:30;;;;;;;;;;;;;;;;;;5118624;27;28350;-85
2022/05/05 08:32:56;;;;;;;;;;;;;;;;;;5118475;27;28439;-85
2022/05/05 08:35:22;;;;;;;;;;;;;;;;;;5118745;27;28458;-86
2022/05/05 08:37:47;;;;;;;;;;;;;;;;;;5118466;27;28731;-85
2022/05/05 08:40:13;;;;;;;;;;;;;;;;;;5118464;27;28399;-86
2022/05/05 08:42:38;;;;;;;;;;;;;;;;;;5118788;27;28412;-85
2022/05/05 08:45:03;;;;;;;;;;;;;;;;;;5117927;27;34497;-86
2022/05/05 08:47:28;;;;;;;;;;;;;;;;;;5118285;27;28762;-86
2022/05/05 08:49:53;;;;;;;;;;;;;;;;;;5118331;27;28480;-85
2022/05/05 08:52:18;;;;;;;;;;;;;;;;;;5118291;27;28990;-84
2022/05/05 08:54:43;;;;;;;;;;;;;;;;;;5118350;27;28357;-80
2022/05/05 08:57:08;;;;;;;;;;;;;;;;;;5116821;27;28317;-87
2022/05/05 08:59:33;;;;;;;;;;;;;;;;;;5118429;27;28299;-87
2022/05/05 09:01:58;;;;;;;;;;;;;;;;;;5118081;27;27794;-87
2022/05/05 09:04:24;;;;;;;;;;;;;;;;;;5118072;27;28381;-83
2022/05/05 09:06:50;;;;;;;;;;;;;;;;;;5118367;27;28282;-84
2022/05/05 09:09:15;;;;;;;;;;;;;;;;;;5117886;27;28424;-84
2022/05/05 09:11:40;;;;;;;;;;;;;;;;;;5118208;27;28319;-84
2022/05/05 09:14:05;;;;;;;;;;;;;;;;;;5117752;27;28450;-84
2022/05/05 09:16:30;;;;;;;;;;;;;;;;;;5118018;27;28368;-84
2022/05/05 09:18:55;;;;;;;;;;;;;;;;;;5118018;27;28397;-84
2022/05/05 09:21:21;;;;;;;;;;;;;;;;;;5118023;27;28375;-84
2022/05/05 09:26:35;;;;;;;;;;;;;;;;;;5118086;27;28248;-84
2022/05/05 09:29:00;;;;;;;;;;;;;;;;;;5117885;27;28323;-84
2022/05/05 09:31:25;;;;;;;;;;;;;;;;;;5118073;27;28326;-84
2022/05/05 09:33:51;;;;;;;;;;;;;;;;;;5117623;27;28541;-84
2022/05/05 09:36:16;;;;;;;;;;;;;;;;;;5117581;27;28318;-84
2022/05/05 09:38:41;;;;;;;;;;;;;;;;;;5117911;27;28433;-85
2022/05/05 09:41:06;;;;;;;;;;;;;;;;;;5117638;27;28442;-85
2022/05/05 09:43:32;;;;;;;;;;;;;;;;;;5117553;27;28566;-84
2022/05/05 09:45:57;;;;;;;;;;;;;;;;;;5117423;27;28412;-84
2022/05/05 09:48:22;;;;;;;;;;;;;;;;;;5117685;27;27872;-84
2022/05/05 09:50:47;;;;;;;;;;;;;;;;;;5117841;27;28294;-84
2022/05/05 09:58:40;;;;;;;;;;;;;;;;;;5102105;27;28344;-84
2022/05/05 10:01:06;;;;;;;;;;;;;;;;;;5097110;28;28339;-83
2022/05/05 10:06:14;;;;;;;;;;;;;;;;;;5096643;27;28804;-84
2022/05/05 10:08:39;;;;;;;;;;;;;;;;;;5096425;28;28292;-84
2022/05/05 10:11:05;;;;;;;;;;;;;;;;;;5096802;27;28307;-84
2022/05/05 10:13:31;;;;;;;;;;;;;;;;;;5096592;28;29477;-85
2022/05/05 10:15:56;;;;;;;;;;;;;;;;;;5096645;28;28487;-84
2022/05/05 10:18:21;;;;;;;;;;;;;;;;;;5096693;27;28294;-84
2022/05/05 10:20:46;;;;;;;;;;;;;;;;;;5096614;28;28378;-84
2022/05/05 10:23:11;;;;;;;;;;;;;;;;;;5096340;28;28437;-84
2022/05/05 10:25:37;;;;;;;;;;;;;;;;;;5096683;27;28469;-84
2022/05/05 10:28:02;;;;;;;;;;;;;;;;;;5096604;27;28315;-84
2022/05/05 10:30:27;;;;;;;;;;;;;;;;;;5096369;28;28449;-84
2022/05/05 10:32:52;;;;;;;;;;;;;;;;;;5096376;27;28426;-84
2022/05/05 10:35:17;;;;;;;;;;;;;;;;;;5096264;27;28546;-84
2022/05/05 10:37:43;;;;;;;;;;;;;;;;;;5096458;28;28456;-84
2022/05/05 10:40:09;;;;;;;;;;;;;;;;;;5096285;28;27981;-84
2022/05/05 10:42:35;;;;;;;;;;;;;;;;;;5111620;27;28402;-84
2022/05/05 10:45:00;;;;;;;;;;;;;;;;;;5096091;28;28404;-84
2022/05/05 10:47:25;;;;;;;;;;;;;;;;;;5096230;28;28389;-84
2022/05/05 10:49:50;;;;;;;;;;;;;;;;;;5096466;28;28216;-84
2022/05/05 10:52:15;;;;;;;;;;;;;;;;;;5095915;28;29352;-84
2022/05/05 10:54:40;;;;;;;;;;;;;;;;;;5096800;27;28309;-84
2022/05/05 10:57:05;;;;;;;;;;;;;;;;;;5117259;27;28314;-84
2022/05/05 10:59:30;;;;;;;;;;;;;;;;;;5136700;27;28378;-84
2022/05/05 11:01:56;;;;;;;;;;;;;;;;;;5152260;27;28407;-83
2022/05/05 11:04:21;;;;;;;;;;;;;;;;;;5157913;27;28318;-84
2022/05/05 11:06:49;;;;;;;;;;;;;;;;;;5157871;27;28469;-83
2022/05/05 11:09:14;;;;;;;;;;;;;;;;;;5157634;27;28424;-83
2022/05/05 11:11:42;;;;;;;;;;;;;;;;;;5157616;27;29256;-83
2022/05/05 11:21:31;;;;;;;;;;;;;;;;;;5150945;27;28497;-84
2022/05/05 11:22:20;;;;;;;;;;;;;;;;;;5117410;27;28472;-83
2022/05/05 11:24:46;;;;;;;;;;;;;;;;;;5135372;27;28376;-86
2022/05/05 11:27:11;;;;;;;;;;;;;;;;;;5118536;27;28413;-84
2022/05/05 11:29:36;;;;;;;;;;;;;;;;;;5116189;27;28389;-83
2022/05/05 11:32:02;;;;;;;;;;;;;;;;;;5115748;27;28504;-84
2022/05/05 11:34:27;;;;;;;;;;;;;;;;;;5131853;27;28344;-84
2022/05/05 11:36:52;;;;;;;;;;;;;;;;;;5115982;27;28350;-84
2022/05/05 11:39:17;;;;;;;;;;;;;;;;;;5115952;27;28316;-84
2022/05/05 11:41:42;;;;;;;;;;;;;;;;;;5115548;27;28320;-84
2022/05/05 11:44:17;;;;;;;;;;;;;;;;;;5115667;27;28275;-85
2022/05/05 11:46:44;;;;;;;;;;;;;;;;;;5115913;27;28265;-84
2022/05/05 11:49:10;;;;;;;;;;;;;;;;;;5115738;27;28398;-84
2022/05/05 11:51:35;;;;;;;;;;;;;;;;;;5115563;27;29596;-84
2022/05/05 11:54:00;;;;;;;;;;;;;;;;;;5131461;27;28265;-83
2022/05/05 11:56:25;;;;;;;;;;;;;;;;;;5115388;27;28410;-85
2022/05/05 12:01:39;;;;;;;;;;;;;;;;;;5094953;28;28350;-85
2022/05/05 12:04:05;;;;;;;;;;;;;;;;;;5094886;27;28408;-84
2022/05/05 12:06:30;;;;;;;;;;;;;;;;;;5101217;27;28492;-84
2022/05/05 12:08:55;;;;;;;;;;;;;;;;;;5115157;27;28457;-83
2022/05/05 12:11:20;;;;;;;;;;;;;;;;;;5115521;27;29409;-87
2022/05/05 12:13:45;;;;;;;;;;;;;;;;;;5126322;27;28499;-84
2022/05/05 12:16:11;;;;;;;;;;;;;;;;;;5114131;27;28335;-85
2022/05/05 12:18:36;;;;;;;;;;;;;;;;;;5115476;27;28342;-86
2022/05/05 12:21:01;;;;;;;;;;;;;;;;;;5115072;27;29360;-85
2022/05/05 12:23:27;;;;;;;;;;;;;;;;;;5114800;27;28474;-85
2022/05/05 12:25:52;;;;;;;;;;;;;;;;;;5130863;27;28340;-84
2022/05/05 12:28:17;;;;;;;;;;;;;;;;;;5135912;27;27809;-85
2022/05/05 12:30:42;;;;;;;;;;;;;;;;;;5137456;27;29092;-84
2022/05/05 12:33:07;;;;;;;;;;;;;;;;;;5139300;27;31466;-86
2022/05/05 12:35:32;;;;;;;;;;;;;;;;;;5139369;27;28282;-90
2022/05/05 12:37:57;;;;;;;;;;;;;;;;;;5103990;27;28288;-92
2022/05/05 12:40:22;;;;;;;;;;;;;;;;;;5099706;27;28816;-90
2022/05/05 12:42:48;;;;;;;;;;;;;;;;;;5116030;27;28462;-88
2022/05/05 12:45:13;;;;;;;;;;;;;;;;;;5117033;27;28574;-90
2022/05/05 12:47:39;;;;;;;;;;;;;;;;;;5117403;27;28349;-90
2022/05/05 12:50:04;;;;;;;;;;;;;;;;;;5116651;27;29538;-88
2022/05/05 13:00:56;;;;;;;;;;;;;;;;;;5053015;28;28107;-87
2022/05/05 13:03:23;;;;;;;;;;;;;;;;;;5031575;28;29127;-85
2022/05/05 13:05:48;;;;;;;;;;;;;;;;;;5046146;28;28407;-90
2022/05/05 13:08:13;;;;;;;;;;;;;;;;;;5036169;28;28534;-91
2022/05/05 13:10:38;;;;;;;;;;;;;;;;;;5015817;28;30612;-90
2022/05/05 13:13:03;;;;;;;;;;;;;;;;;;5032995;28;28377;-90
2022/05/05 13:15:28;;;;;;;;;;;;;;;;;;5063531;28;28446;-92
2022/05/05 13:17:53;;;;;;;;;;;;;;;;;;5075594;28;28474;-92
2022/05/05 13:20:19;;;;;;;;;;;;;;;;;;5066189;28;28468;-91
2022/05/05 13:22:44;;;;;;;;;;;;;;;;;;5055321;28;28570;-92
2022/05/05 13:25:09;;;;;;;;;;;;;;;;;;5053917;28;28373;-93
2022/05/05 13:27:34;;;;;;;;;;;;;;;;;;5055588;28;28607;-83
2022/05/05 13:30:00;;;;;;;;;;;;;;;;;;5110045;27;29329;-85
2022/05/05 13:32:25;;;;;;;;;;;;;;;;;;5130087;27;28358;-85
2022/05/05 13:34:52;;;;;;;;;;;;;;;;;;5132664;27;28397;-85
2022/05/05 13:37:18;;;;;;;;;;;;;;;;;;5138504;27;28346;-85
2022/05/05 13:39:43;;;;;;;;;;;;;;;;;;5124541;27;29542;-86
2022/05/05 13:42:08;;;;;;;;;;;;;;;;;;5119376;27;32303;-85
2022/05/05 13:44:33;;;;;;;;;;;;;;;;;;5117629;27;28354;-86
2022/05/05 13:46:58;;;;;;;;;;;;;;;;;;5118018;27;28324;-85
2022/05/05 13:49:23;;;;;;;;;;;;;;;;;;5117497;27;28290;-85
2022/05/05 13:51:48;;;;;;;;;;;;;;;;;;5117445;27;28303;-86
2022/05/05 13:54:13;;;;;;;;;;;;;;;;;;5117489;27;28287;-85
2022/05/05 13:56:39;;;;;;;;;;;;;;;;;;5117714;27;28233;-86
2022/05/05 13:59:04;;;;;;;;;;;;;;;;;;5134992;27;28550;-86
2022/05/05 14:01:29;;;;;;;;;;;;;;;;;;5137949;27;28356;-86
2022/05/05 14:03:54;;;;;;;;;;;;;;;;;;5140599;27;28463;-83
2022/05/05 14:06:19;;;;;;;;;;;;;;;;;;5161441;27;28451;-84
2022/05/05 14:14:12;;;;;;;;;;;;;;;;;;5175451;27;28460;-85
2022/05/05 14:16:38;;;;;;;;;;;;;;;;;;5155399;27;28421;-85
2022/05/05 14:19:03;;;;;;;;;;;;;;;;;;5157961;27;28485;-86
2022/05/05 14:21:28;;;;;;;;;;;;;;;;;;5174014;27;28424;-85
2022/05/05 14:23:53;;;;;;;;;;;;;;;;;;5157864;27;28521;-85
2022/05/05 14:26:18;;;;;;;;;;;;;;;;;;5157497;27;28330;-85
2022/05/05 14:28:44;;;;;;;;;;;;;;;;;;5139321;27;28571;-83
2022/05/05 14:31:09;;;;;;;;;;;;;;;;;;5141138;27;28255;-84
2022/05/05 14:33:34;;;;;;;;;;;;;;;;;;5137011;27;28331;-86
2022/05/05 14:35:59;;;;;;;;;;;;;;;;;;5153157;27;28369;-86
2022/05/05 14:38:24;;;;;;;;;;;;;;;;;;5138065;27;28604;-86
2022/05/05 14:40:49;;;;;;;;;;;;;;;;;;5136743;27;28538;-86
2022/05/05 14:43:14;;;;;;;;;;;;;;;;;;5137083;27;28297;-86
2022/05/05 14:45:40;;;;;;;;;;;;;;;;;;5136927;27;28437;-85
2022/05/05 14:48:05;;;;;;;;;;;;;;;;;;5145766;27;28476;-86
2022/05/05 14:50:31;;;;;;;;;;;;;;;;;;5138885;27;28475;-86
2022/05/05 14:52:56;;;;;;;;;;;;;;;;;;5157365;27;28359;-85
2022/05/05 14:55:21;;;;;;;;;;;;;;;;;;5143739;27;28255;-85
2022/05/05 14:57:46;;;;;;;;;;;;;;;;;;5129294;27;29623;-86
2022/05/05 15:00:11;;;;;;;;;;;;;;;;;;5132225;27;28295;-85
2022/05/05 15:02:36;;;;;;;;;;;;;;;;;;5134064;27;28504;-86
2022/05/05 15:05:02;;;;;;;;;;;;;;;;;;5166380;27;28616;-86
2022/05/05 15:07:27;;;;;;;;;;;;;;;;;;5115910;27;28493;-87
2022/05/05 15:09:52;;;;;;;;;;;;;;;;;;5120081;27;28507;-87
2022/05/05 15:12:18;;;;;;;;;;;;;;;;;;5133900;27;28543;-85
2022/05/05 15:14:45;;;;;;;;;;;;;;;;;;5136286;27;28572;-86
2022/05/05 15:17:10;;;;;;;;;;;;;;;;;;5135157;27;29017;-88
2022/05/05 15:19:35;;;;;;;;;;;;;;;;;;5135535;27;28444;-88
2022/05/05 15:22:01;;;;;;;;;;;;;;;;;;5135707;27;28393;-88
2022/05/05 15:24:26;;;;;;;;;;;;;;;;;;5135863;27;28519;-88
2022/05/05 15:26:51;;;;;;;;;;;;;;;;;;5135883;27;29274;-88
2022/05/05 15:29:16;;;;;;;;;;;;;;;;;;5169611;27;29610;-88
2022/05/05 15:31:41;;;;;;;;;;;;;;;;;;5169770;27;28453;-87
2022/05/05 15:34:06;;;;;;;;;;;;;;;;;;5136189;27;28446;-88
2022/05/05 15:36:31;;;;;;;;;;;;;;;;;;5156365;27;31023;-88
2022/05/05 15:38:57;;;;;;;;;;;;;;;;;;5155272;27;28379;-87
2022/05/05 15:41:22;;;;;;;;;;;;;;;;;;5150298;27;28386;-88
2022/05/05 15:43:47;;;;;;;;;;;;;;;;;;5136319;27;28277;-87
2022/05/05 15:46:12;;;;;;;;;;;;;;;;;;5135068;27;28503;-88
2022/05/05 15:48:38;;;;;;;;;;;;;;;;;;5135565;27;28437;-88
2022/05/05 15:51:03;;;;;;;;;;;;;;;;;;5135337;27;28615;-88
2022/05/05 15:53:28;;;;;;;;;;;;;;;;;;5140900;27;28525;-88
2022/05/05 15:55:54;;;;;;;;;;;;;;;;;;5140454;27;29310;-87
2022/05/05 15:58:19;;;;;;;;;;;;;;;;;;5134898;27;28801;-87
2022/05/05 16:00:44;;;;;;;;;;;;;;;;;;5135482;27;28282;-87
2022/05/05 16:03:09;;;;;;;;;;;;;;;;;;5135536;27;28674;-87
2022/05/05 16:05:36;;;;;;;;;;;;;;;;;;5136775;27;28410;-87
2022/05/05 16:08:01;;;;;;;;;;;;;;;;;;5139305;27;28472;-88
2022/05/05 16:10:26;;;;;;;;;;;;;;;;;;5138409;27;28371;-86
2022/05/05 16:12:51;;;;;;;;;;;;;;;;;;5138785;27;28444;-88
2022/05/05 16:15:16;;;;;;;;;;;;;;;;;;5138851;27;29422;-87
2022/05/05 16:17:41;;;;;;;;;;;;;;;;;;5120527;27;28539;-88
2022/05/05 16:20:07;;;;;;;;;;;;;;;;;;5139184;27;28515;-87
2022/05/05 16:22:32;;;;;;;;;;;;;;;;;;5138905;27;28418;-86
2022/05/05 16:30:24;;;;;;;;;;;;;;;;;;5139405;27;28500;-87
2022/05/05 16:32:51;;;;;;;;;;;;;;;;;;5129825;27;28441;-89
2022/05/05 16:35:16;;;;;;;;;;;;;;;;;;5130182;27;28535;-88
2022/05/05 16:37:41;;;;;;;;;;;;;;;;;;5155219;27;28321;-89
2022/05/05 16:40:06;;;;;;;;;;;;;;;;;;5139350;27;28404;-88
2022/05/05 16:42:31;;;;;;;;;;;;;;;;;;5139398;27;28362;-89
2022/05/05 16:44:56;;;;;;;;;;;;;;;;;;5139078;27;28327;-90
2022/05/05 16:47:22;;;;;;;;;;;;;;;;;;5155527;27;28295;-89
2022/05/05 16:49:47;;;;;;;;;;;;;;;;;;5139320;27;28460;-89
2022/05/05 16:52:12;;;;;;;;;;;;;;;;;;5139318;27;28448;-88
2022/05/05 16:54:37;;;;;;;;;;;;;;;;;;5155229;27;28421;-88
2022/05/05 16:57:03;;;;;;;;;;;;;;;;;;5139448;27;28548;-88
2022/05/05 16:59:28;;;;;;;;;;;;;;;;;;5160410;27;28435;-88
2022/05/05 17:01:53;;;;;;;;;;;;;;;;;;5159822;27;28446;-88
2022/05/05 17:04:18;;;;;;;;;;;;;;;;;;5159844;27;29705;-88
2022/05/05 17:06:43;;;;;;;;;;;;;;;;;;5159716;27;28383;-88
2022/05/05 17:09:08;;;;;;;;;;;;;;;;;;5159863;27;28521;-88
2022/05/05 17:11:34;;;;;;;;;;;;;;;;;;5159731;27;28400;-88
2022/05/05 17:13:59;;;;;;;;;;;;;;;;;;5159878;27;28526;-88
2022/05/05 17:16:24;;;;;;;;;;;;;;;;;;5159145;27;28440;-88
2022/05/05 17:18:50;;;;;;;;;;;;;;;;;;5175353;27;28614;-88
2022/05/05 17:21:15;;;;;;;;;;;;;;;;;;5159536;27;28445;-88
2022/05/05 17:23:40;;;;;;;;;;;;;;;;;;5159497;27;28591;-88
2022/05/05 17:26:05;;;;;;;;;;;;;;;;;;5159351;27;28364;-88
2022/05/05 17:28:30;;;;;;;;;;;;;;;;;;5159591;27;28383;-92
2022/05/05 17:30:55;;;;;;;;;;;;;;;;;;5175673;27;28427;-93
2022/05/05 17:33:20;;;;;;;;;;;;;;;;;;5160838;27;28582;-92
2022/05/05 17:35:45;;;;;;;;;;;;;;;;;;5161334;27;28384;-92
2022/05/05 17:38:10;;;;;;;;;;;;;;;;;;5176132;27;28350;-89